Time;durP1;ratioP1;P1;durP2;ratioP2;P2;SDS_P1;SDS_P2;PMS_P1;PMS_P2;Temp;Humidity;BMP_temperature;BMP_pressure;BME280_temperature;BME280_humidity;BME280_pressure;Samples;Min_cycle;Max_cycle;Signal;HPM_P1;HPM_P2
2022/06/27 00:00:21;;;;;;;53.00;32.75;;;27.20;99.90;;;;;;5054709;28;20478;-67
2022/06/27 00:02:48;;;;;;;79.55;45.95;;;27.20;99.90;;;;;;5054547;28;20028;-67
2022/06/27 00:05:14;;;;;;;44.58;26.70;;;27.20;99.90;;;;;;5054411;28;20051;-66
2022/06/27 00:07:41;;;;;;;59.03;40.60;;;27.20;99.90;;;;;;5054121;28;20551;-65
2022/06/27 00:10:09;;;;;;;367.15;286.42;;;27.20;99.90;;;;;;5054264;28;20155;-66
2022/06/27 00:12:36;;;;;;;101.03;74.55;;;27.20;99.90;;;;;;5054162;28;20478;-65
2022/06/27 00:15:04;;;;;;;55.20;32.80;;;27.20;99.90;;;;;;5054348;28;20367;-66
2022/06/27 00:17:31;;;;;;;86.50;57.42;;;27.20;99.90;;;;;;5054135;28;20033;-67
2022/06/27 00:19:58;;;;;;;74.18;54.63;;;27.30;99.90;;;;;;5053875;28;20155;-66
2022/06/27 00:22:26;;;;;;;60.70;39.28;;;27.30;99.90;;;;;;5053763;28;20052;-66
2022/06/27 00:24:53;;;;;;;39.50;23.98;;;27.40;99.90;;;;;;5054166;28;20025;-67
2022/06/27 00:27:20;;;;;;;31.02;18.65;;;27.40;99.90;;;;;;5054016;28;20021;-67
2022/06/27 00:29:46;;;;;;;28.27;15.15;;;27.40;99.90;;;;;;5053960;28;20017;-67
2022/06/27 00:32:13;;;;;;;30.27;16.33;;;27.30;99.90;;;;;;5053259;28;20024;-66
2022/06/27 00:34:40;;;;;;;25.83;14.00;;;27.40;99.90;;;;;;5053785;28;20036;-66
2022/06/27 00:37:07;;;;;;;25.20;12.50;;;27.40;99.90;;;;;;5053760;28;20017;-67
2022/06/27 00:39:34;;;;;;;31.80;18.95;;;27.40;99.90;;;;;;5053928;28;20033;-68
2022/06/27 00:42:00;;;;;;;34.00;14.93;;;27.40;99.90;;;;;;5053935;28;20028;-66
2022/06/27 00:44:38;;;;;;;25.17;13.45;;;27.40;99.90;;;;;;5053208;28;20033;-67
2022/06/27 00:47:07;;;;;;;28.35;13.77;;;27.40;99.90;;;;;;5049497;28;20071;-67
2022/06/27 00:49:35;;;;;;;26.13;15.38;;;27.40;99.90;;;;;;5053533;28;20025;-67
2022/06/27 00:52:05;;;;;;;29.20;15.35;;;27.50;99.90;;;;;;5053343;28;20394;-67
2022/06/27 00:54:32;;;;;;;59.17;43.65;;;27.40;99.90;;;;;;5053511;28;20116;-66
2022/06/27 00:56:59;;;;;;;39.33;25.95;;;27.40;99.90;;;;;;5053462;28;20032;-67
2022/06/27 00:59:25;;;;;;;25.83;15.88;;;27.50;99.90;;;;;;5053398;28;20021;-67
2022/06/27 01:01:52;;;;;;;45.78;31.58;;;27.50;99.90;;;;;;5053443;28;20028;-67
2022/06/27 01:04:19;;;;;;;45.67;25.23;;;27.50;99.90;;;;;;5053483;28;20020;-67
2022/06/27 01:06:46;;;;;;;53.70;29.00;;;27.60;99.90;;;;;;5053364;28;20100;-66
2022/06/27 01:09:12;;;;;;;29.55;16.42;;;27.60;99.90;;;;;;5053179;28;20614;-66
2022/06/27 01:11:39;;;;;;;17.13;11.27;;;27.60;99.90;;;;;;5053219;28;20033;-66
2022/06/27 01:14:06;;;;;;;26.38;11.30;;;27.60;99.90;;;;;;5053245;28;20024;-67
2022/06/27 01:16:34;;;;;;;20.75;11.07;;;27.60;99.90;;;;;;5053346;28;20021;-68
2022/06/27 01:19:02;;;;;;;28.30;13.15;;;27.70;99.90;;;;;;5052885;28;20485;-68
2022/06/27 01:21:34;;;;;;;143.10;98.43;;;27.70;99.90;;;;;;5053095;28;20036;-67
2022/06/27 01:24:00;;;;;;;54.72;47.25;;;27.80;99.90;;;;;;5053047;28;20064;-67
2022/06/27 01:26:27;;;;;;;49.22;39.25;;;27.80;99.90;;;;;;5053088;28;20179;-68
2022/06/27 01:28:54;;;;;;;34.45;21.45;;;27.80;99.90;;;;;;5052991;28;20021;-67
2022/06/27 01:31:21;;;;;;;100.32;66.63;;;27.80;99.90;;;;;;5053082;28;20538;-67
2022/06/27 01:33:47;;;;;;;81.35;54.58;;;27.80;99.90;;;;;;5052797;28;20106;-67
2022/06/27 01:39:00;;;;;;;33.35;19.45;;;27.80;99.90;;;;;;5052483;28;20029;-67
2022/06/27 01:41:27;;;;;;;32.47;18.42;;;27.90;99.90;;;;;;5053195;28;20047;-67
2022/06/27 01:43:54;;;;;;;18.33;12.45;;;27.90;99.90;;;;;;5056349;28;20414;-68
2022/06/27 01:46:20;;;;;;;22.15;11.20;;;27.90;99.90;;;;;;5057182;28;20021;-70
2022/06/27 01:48:47;;;;;;;22.30;13.23;;;27.90;99.90;;;;;;5057055;28;20024;-70
2022/06/27 01:51:15;;;;;;;32.00;13.75;;;27.90;99.90;;;;;;5056932;28;20043;-67
2022/06/27 01:53:42;;;;;;;20.48;9.10;;;28.00;99.90;;;;;;5056723;28;20021;-68
2022/06/27 01:56:08;;;;;;;13.77;9.02;;;28.00;99.90;;;;;;5056738;28;20020;-66
2022/06/27 01:58:36;;;;;;;17.92;10.65;;;28.10;99.90;;;;;;5056743;28;20025;-68
2022/06/27 02:01:04;;;;;;;25.25;11.77;;;28.10;99.90;;;;;;5055829;28;20389;-70
2022/06/27 02:03:33;;;;;;;26.83;18.10;;;28.10;99.90;;;;;;5056290;28;20075;-66
2022/06/27 02:05:59;;;;;;;18.70;11.40;;;28.10;99.90;;;;;;5056796;28;20013;-64
2022/06/27 02:08:27;;;;;;;82.47;48.97;;;28.10;99.90;;;;;;5056318;28;20017;-65
2022/06/27 02:10:54;;;;;;;78.40;53.10;;;28.20;99.90;;;;;;5056737;28;20021;-66
2022/06/27 02:13:21;;;;;;;24.83;12.80;;;28.30;99.90;;;;;;5056596;28;20112;-66
2022/06/27 02:16:10;;;;;;;23.67;14.07;;;28.30;99.90;;;;;;5056102;28;20051;-63
2022/06/27 02:18:38;;;;;;;42.38;25.35;;;28.30;99.90;;;;;;5055842;28;20044;-65
2022/06/27 02:21:06;;;;;;;84.03;52.20;;;28.40;99.90;;;;;;5056142;28;20029;-66
2022/06/27 02:23:33;;;;;;;59.95;37.88;;;28.40;99.90;;;;;;5056318;28;20049;-66
2022/06/27 02:26:01;;;;;;;35.13;23.23;;;28.40;99.90;;;;;;5056060;28;20029;-66
2022/06/27 02:28:29;;;;;;;17.13;9.02;;;28.40;99.90;;;;;;5055110;28;20028;-67
2022/06/27 02:30:56;;;;;;;21.90;12.23;;;28.40;99.90;;;;;;5051087;28;20469;-66
2022/06/27 02:33:25;;;;;;;31.10;17.55;;;28.50;99.90;;;;;;5055451;28;20033;-67
2022/06/27 02:35:54;;;;;;;24.50;13.90;;;28.50;99.90;;;;;;5055526;28;20088;-66
2022/06/27 02:38:22;;;;;;;24.27;11.50;;;28.50;99.90;;;;;;5055379;28;20037;-65
2022/06/27 02:40:49;;;;;;;21.48;11.10;;;28.60;99.90;;;;;;5055895;28;20375;-65
2022/06/27 02:43:17;;;;;;;22.80;10.00;;;28.60;99.90;;;;;;5054763;28;20021;-65
2022/06/27 02:45:46;;;;;;;17.08;10.00;;;28.60;99.90;;;;;;5049509;28;20027;-64
2022/06/27 02:48:16;;;;;;;19.77;11.45;;;28.70;99.90;;;;;;5055339;28;20056;-65
2022/06/27 02:50:46;;;;;;;15.98;8.98;;;28.70;99.90;;;;;;5051567;28;20029;-65
2022/06/27 02:53:16;;;;;;;12.70;8.05;;;28.70;99.90;;;;;;5037371;28;20040;-63
2022/06/27 02:55:49;;;;;;;18.50;9.75;;;28.70;99.90;;;;;;5054291;28;20048;-66
2022/06/27 02:58:32;;;;;;;16.35;11.57;;;28.80;99.90;;;;;;5052373;28;20037;-65
2022/06/27 03:01:00;;;;;;;21.23;12.27;;;28.90;99.90;;;;;;5050388;28;20032;-65
2022/06/27 03:03:28;;;;;;;19.85;11.60;;;29.00;99.90;;;;;;5053343;28;20031;-68
2022/06/27 03:05:55;;;;;;;27.90;14.90;;;29.20;99.90;;;;;;5050874;28;20469;-67
2022/06/27 03:08:22;;;;;;;28.55;15.88;;;29.30;99.90;;;;;;5055102;28;20037;-67
2022/06/27 03:10:49;;;;;;;33.03;18.13;;;29.40;99.90;;;;;;5056218;28;20264;-67
2022/06/27 03:13:16;;;;;;;34.40;19.35;;;29.50;99.90;;;;;;5054191;28;20027;-68
2022/06/27 03:15:43;;;;;;;35.90;19.58;;;29.50;99.90;;;;;;5054258;28;20052;-67
2022/06/27 03:18:14;;;;;;;33.47;19.98;;;29.60;99.90;;;;;;5049506;28;20386;-67
2022/06/27 03:20:41;;;;;;;45.30;22.88;;;29.70;99.90;;;;;;5054836;28;20021;-67
2022/06/27 03:23:08;;;;;;;32.50;20.58;;;29.80;99.90;;;;;;5054835;28;20108;-67
2022/06/27 03:25:34;;;;;;;35.15;18.55;;;29.90;99.90;;;;;;5055518;28;20059;-64
2022/06/27 03:28:01;;;;;;;32.80;19.35;;;30.00;99.90;;;;;;5054620;28;20013;-65
2022/06/27 03:30:28;;;;;;;36.22;18.27;;;30.20;99.90;;;;;;5054213;28;20028;-65
2022/06/27 03:32:55;;;;;;;34.03;20.77;;;30.30;99.90;;;;;;5053421;28;20021;-65
2022/06/27 03:35:21;;;;;;;34.90;19.75;;;30.30;99.90;;;;;;5053911;28;20248;-66
2022/06/27 03:37:48;;;;;;;25.75;15.25;;;30.30;99.90;;;;;;5053651;28;20481;-64
2022/06/27 03:40:15;;;;;;;23.48;14.32;;;30.30;99.90;;;;;;5053889;28;20025;-64
2022/06/27 03:42:41;;;;;;;23.25;13.27;;;30.40;99.90;;;;;;5054377;28;20021;-65
2022/06/27 03:45:08;;;;;;;20.65;10.85;;;30.40;99.90;;;;;;5055165;28;20021;-66
2022/06/27 03:47:57;;;;;;;19.88;10.57;;;30.50;99.90;;;;;;5055410;28;20021;-66
2022/06/27 03:50:25;;;;;;;12.68;8.00;;;30.60;99.90;;;;;;4974552;28;20392;-65
2022/06/27 03:52:54;;;;;;;16.73;8.73;;;30.70;99.90;;;;;;4974985;28;20132;-65
2022/06/27 03:55:22;;;;;;;16.20;8.55;;;30.80;99.90;;;;;;4965912;28;20246;-65
2022/06/27 03:57:56;;;;;;;16.13;7.47;;;30.90;99.90;;;;;;4955103;29;20118;-66
2022/06/27 04:00:27;;;;;;;12.10;6.28;;;31.00;99.90;;;;;;4954576;29;20464;-66
2022/06/27 04:02:54;;;;;;;10.53;5.10;;;31.00;99.90;;;;;;4955029;29;20031;-66
2022/06/27 04:05:20;;;;;;;8.63;5.20;;;31.10;99.90;;;;;;4954516;28;20125;-66
2022/06/27 04:07:47;;;;;;;13.35;6.57;;;31.10;99.90;;;;;;4959447;28;20027;-68
2022/06/27 04:10:14;;;;;;;10.90;7.07;;;31.00;99.90;;;;;;4973893;28;20555;-65
2022/06/27 04:12:41;;;;;;;10.35;7.25;;;31.10;99.90;;;;;;4960625;28;20436;-66
2022/06/27 04:15:10;;;;;;;13.70;7.82;;;31.00;99.90;;;;;;4970203;28;20465;-66
2022/06/27 04:17:37;;;;;;;17.70;8.95;;;31.00;99.90;;;;;;4973352;28;20041;-66
2022/06/27 04:20:05;;;;;;;14.30;8.15;;;31.00;99.90;;;;;;4972808;28;20038;-64
2022/06/27 04:22:33;;;;;;;14.32;7.68;;;31.10;99.90;;;;;;4972833;28;20114;-64
2022/06/27 04:25:04;;;;;;;12.32;8.30;;;31.30;99.90;;;;;;4972912;28;20030;-64
2022/06/27 04:27:31;;;;;;;13.48;7.20;;;31.30;99.90;;;;;;5016061;28;20478;-66
2022/06/27 04:29:58;;;;;;;10.23;6.82;;;31.30;99.90;;;;;;5053423;28;20071;-65
2022/06/27 04:32:25;;;;;;;12.35;6.75;;;31.30;99.90;;;;;;5053776;28;20478;-65
2022/06/27 04:34:52;;;;;;;12.35;6.72;;;31.40;99.90;;;;;;5053817;28;20501;-65
2022/06/27 04:37:19;;;;;;;11.05;7.00;;;31.40;99.90;;;;;;5053748;28;20374;-65
2022/06/27 04:39:46;;;;;;;10.48;7.10;;;31.50;99.90;;;;;;5052788;28;20090;-64
2022/06/27 04:42:13;;;;;;;9.30;6.35;;;31.50;99.90;;;;;;5053118;28;20029;-65
2022/06/27 04:44:41;;;;;;;9.27;5.82;;;31.70;99.90;;;;;;5053765;28;20122;-66
2022/06/27 04:47:08;;;;;;;11.48;6.68;;;31.60;99.90;;;;;;5053293;28;20078;-64
2022/06/27 04:49:36;;;;;;;8.07;5.72;;;31.70;99.90;;;;;;5017993;28;20037;-65
2022/06/27 04:52:06;;;;;;;8.68;5.95;;;31.70;99.90;;;;;;5050606;28;20559;-65
2022/06/27 04:54:34;;;;;;;9.45;6.03;;;31.80;99.90;;;;;;5046089;28;20033;-69
2022/06/27 04:57:01;;;;;;;8.35;6.05;;;31.70;99.90;;;;;;5035160;28;20029;-67
2022/06/27 04:59:28;;;;;;;14.32;6.50;;;31.90;99.90;;;;;;5052740;28;21898;-66
2022/06/27 05:01:55;;;;;;;16.33;7.40;;;31.80;99.90;;;;;;5053057;28;20026;-65
2022/06/27 05:04:23;;;;;;;9.90;6.25;;;31.80;99.90;;;;;;5052470;28;20486;-66
2022/06/27 05:06:51;;;;;;;8.52;5.82;;;31.70;99.90;;;;;;5038394;28;20115;-65
2022/06/27 05:09:17;;;;;;;7.47;5.97;;;31.60;99.90;;;;;;5049457;28;20059;-65
2022/06/27 05:11:45;;;;;;;20.85;5.72;;;31.70;99.90;;;;;;5051560;28;20547;-65
2022/06/27 05:14:12;;;;;;;12.25;7.05;;;31.70;99.90;;;;;;5052525;28;20071;-65
2022/06/27 05:16:39;;;;;;;19.80;5.72;;;31.70;99.90;;;;;;5032756;28;20409;-65
2022/06/27 05:19:06;;;;;;;9.95;5.32;;;31.80;99.90;;;;;;5036159;28;20025;-65
2022/06/27 05:21:33;;;;;;;10.10;5.40;;;31.90;99.90;;;;;;5052939;28;20443;-66
2022/06/27 05:24:00;;;;;;;10.27;5.20;;;31.90;99.90;;;;;;5052960;28;20096;-65
2022/06/27 05:26:26;;;;;;;7.60;5.18;;;31.80;99.90;;;;;;5052425;28;20632;-67
2022/06/27 05:28:53;;;;;;;8.70;5.57;;;32.00;99.90;;;;;;5052915;28;20021;-66
2022/06/27 05:31:20;;;;;;;9.20;5.28;;;32.10;99.90;;;;;;5045465;28;20018;-66
2022/06/27 05:33:47;;;;;;;8.30;5.53;;;32.10;99.20;;;;;;5048785;28;20052;-66
2022/06/27 05:36:13;;;;;;;8.05;6.45;;;32.20;99.90;;;;;;5047640;28;20021;-66
2022/06/27 05:38:40;;;;;;;12.48;7.47;;;32.20;98.90;;;;;;5053226;28;20021;-66
2022/06/27 05:41:07;;;;;;;15.77;6.03;;;32.30;99.10;;;;;;5052564;28;20048;-67
2022/06/27 05:43:34;;;;;;;12.65;7.50;;;32.20;98.10;;;;;;5052857;28;20021;-67
2022/06/27 05:46:01;;;;;;;11.13;7.10;;;32.20;98.50;;;;;;5053093;28;20029;-66
2022/06/27 05:48:28;;;;;;;9.00;6.65;;;32.30;98.00;;;;;;5052755;28;20025;-66
2022/06/27 05:50:55;;;;;;;16.85;7.78;;;32.30;98.90;;;;;;5050203;28;20048;-66
2022/06/27 05:53:28;;;;;;;12.70;6.95;;;32.40;99.00;;;;;;5049925;28;20032;-67
2022/06/27 05:55:55;;;;;;;7.72;6.43;;;32.50;98.30;;;;;;5050799;28;20063;-66
2022/06/27 05:58:22;;;;;;;9.10;6.18;;;32.50;97.60;;;;;;5052596;28;20059;-66
2022/06/27 06:00:49;;;;;;;10.20;6.30;;;32.40;96.10;;;;;;5052535;28;20031;-66
2022/06/27 06:03:16;;;;;;;8.80;6.78;;;32.20;96.50;;;;;;5052741;28;20044;-66
2022/06/27 06:05:45;;;;;;;12.63;6.15;;;32.20;97.40;;;;;;5052603;28;20453;-66
2022/06/27 06:08:12;;;;;;;9.13;6.60;;;32.30;96.30;;;;;;5047172;28;20102;-64
2022/06/27 06:10:39;;;;;;;10.13;6.22;;;32.30;96.60;;;;;;5050173;28;20032;-65
2022/06/27 06:13:06;;;;;;;9.60;6.03;;;32.30;96.70;;;;;;5052321;28;20504;-66
2022/06/27 06:15:33;;;;;;;13.95;7.25;;;32.30;96.70;;;;;;5031937;28;20032;-65
2022/06/27 06:18:02;;;;;;;9.48;6.32;;;32.20;97.20;;;;;;5051487;28;20179;-64
2022/06/27 06:20:29;;;;;;;14.15;6.38;;;32.10;95.80;;;;;;5052723;28;20040;-66
2022/06/27 06:22:57;;;;;;;8.90;6.50;;;32.10;96.90;;;;;;5052997;28;20025;-64
2022/06/27 06:25:23;;;;;;;9.15;6.13;;;32.20;97.30;;;;;;5052209;28;20033;-64
2022/06/27 06:27:50;;;;;;;8.85;6.55;;;32.30;97.10;;;;;;5034479;28;20059;-65
2022/06/27 06:30:19;;;;;;;13.68;6.47;;;32.50;97.00;;;;;;5034563;28;20033;-66
2022/06/27 06:32:47;;;;;;;9.77;6.40;;;32.70;96.30;;;;;;5035956;28;20037;-65
2022/06/27 06:35:15;;;;;;;8.95;6.43;;;32.80;96.30;;;;;;5049200;28;20032;-64
2022/06/27 06:37:42;;;;;;;7.82;5.78;;;32.90;95.70;;;;;;5055570;28;20082;-63
2022/06/27 06:40:14;;;;;;;8.82;6.28;;;33.00;95.00;;;;;;5055517;28;20052;-65
2022/06/27 06:42:41;;;;;;;13.05;6.13;;;32.90;94.50;;;;;;5054299;28;20470;-64
2022/06/27 06:45:08;;;;;;;7.72;6.65;;;32.80;94.90;;;;;;5050330;28;20033;-64
2022/06/27 06:47:43;;;;;;;10.45;7.13;;;32.70;94.70;;;;;;5053517;28;20032;-63
2022/06/27 06:50:13;;;;;;;9.70;7.40;;;32.90;94.70;;;;;;5055906;28;20028;-64
2022/06/27 06:52:42;;;;;;;9.40;7.50;;;33.00;95.00;;;;;;5055641;28;20032;-66
2022/06/27 06:55:12;;;;;;;10.38;6.80;;;33.20;94.20;;;;;;5054057;28;20032;-64
2022/06/27 06:57:39;;;;;;;9.32;6.60;;;33.30;94.40;;;;;;5054729;28;20096;-64
2022/06/27 07:00:08;;;;;;;8.38;6.57;;;33.40;93.60;;;;;;5048700;28;20079;-64
2022/06/27 07:02:35;;;;;;;7.63;6.10;;;33.50;93.90;;;;;;5052266;28;20109;-63
2022/06/27 07:05:04;;;;;;;9.38;5.82;;;33.60;93.60;;;;;;5053305;28;20539;-63
2022/06/27 07:07:34;;;;;;;6.80;5.40;;;33.60;93.30;;;;;;5053753;28;20033;-63
2022/06/27 07:10:02;;;;;;;7.35;6.45;;;33.50;92.30;;;;;;5038874;28;20067;-62
2022/06/27 07:12:33;;;;;;;9.35;5.93;;;33.60;92.70;;;;;;5052827;28;20025;-63
2022/06/27 07:15:01;;;;;;;8.30;6.30;;;33.70;92.40;;;;;;5054039;28;20037;-63
2022/06/27 07:17:29;;;;;;;12.07;7.75;;;33.70;92.20;;;;;;5049437;28;20037;-64
2022/06/27 07:19:56;;;;;;;10.60;7.10;;;33.80;91.80;;;;;;5051958;28;20021;-65
2022/06/27 07:22:28;;;;;;;7.97;6.60;;;33.80;91.40;;;;;;5052818;28;20025;-65
2022/06/27 07:24:55;;;;;;;7.68;6.35;;;33.80;91.80;;;;;;5054940;28;20024;-64
2022/06/27 07:27:22;;;;;;;8.20;6.07;;;33.90;91.20;;;;;;5054352;28;20099;-64
2022/06/27 07:29:49;;;;;;;10.90;7.40;;;33.80;90.50;;;;;;5054393;28;20111;-63
2022/06/27 07:32:15;;;;;;;9.75;6.82;;;33.70;91.00;;;;;;5054004;28;20152;-65
2022/06/27 07:34:42;;;;;;;11.85;7.82;;;33.70;90.70;;;;;;5054439;28;20119;-65
2022/06/27 07:37:09;;;;;;;7.53;6.47;;;33.70;90.60;;;;;;5054312;28;20029;-63
2022/06/27 07:39:35;;;;;;;9.77;7.53;;;33.70;91.10;;;;;;5054219;28;20035;-65
2022/06/27 07:42:03;;;;;;;9.82;6.90;;;33.80;90.90;;;;;;5053973;28;20021;-64
2022/06/27 07:44:30;;;;;;;8.45;7.03;;;33.80;91.10;;;;;;5053626;28;20504;-65
2022/06/27 07:46:57;;;;;;;13.20;8.23;;;33.80;91.10;;;;;;5051611;28;20036;-64
2022/06/27 07:49:24;;;;;;;8.38;6.82;;;33.70;90.40;;;;;;5054072;28;20389;-63
2022/06/27 07:51:51;;;;;;;13.48;7.78;;;33.70;90.50;;;;;;5053716;28;20504;-64
2022/06/27 07:54:19;;;;;;;11.70;7.40;;;33.70;88.10;;;;;;5050790;28;20069;-66
2022/06/27 07:56:49;;;;;;;8.15;6.28;;;33.60;87.20;;;;;;5051203;28;20520;-64
2022/06/27 07:59:17;;;;;;;10.85;6.47;;;33.60;90.00;;;;;;5052957;28;20021;-64
2022/06/27 08:01:44;;;;;;;7.13;6.05;;;33.70;89.50;;;;;;5051517;28;20028;-65
2022/06/27 08:04:14;;;;;;;11.32;6.32;;;33.70;90.30;;;;;;5051829;28;20021;-65
2022/06/27 08:06:42;;;;;;;13.52;7.03;;;33.70;90.90;;;;;;5027518;28;20386;-64
2022/06/27 08:09:10;;;;;;;8.35;5.80;;;33.80;90.60;;;;;;5050946;28;20013;-64
2022/06/27 08:11:41;;;;;;;7.57;6.47;;;33.70;88.70;;;;;;5053540;28;20033;-65
2022/06/27 08:14:11;;;;;;;13.05;6.20;;;33.80;89.50;;;;;;5054079;28;20063;-66
2022/06/27 08:16:40;;;;;;;9.00;6.45;;;33.90;88.30;;;;;;5053168;28;20060;-65
2022/06/27 08:19:10;;;;;;;16.25;9.07;;;33.90;86.50;;;;;;5053429;28;20033;-66
2022/06/27 08:21:37;;;;;;;7.47;6.30;;;33.90;85.60;;;;;;5052863;28;20037;-66
2022/06/27 08:24:08;;;;;;;7.05;5.72;;;34.00;88.10;;;;;;5053474;28;20029;-65
2022/06/27 08:26:36;;;;;;;10.05;7.13;;;33.90;87.60;;;;;;5049071;28;20026;-67
2022/06/27 08:29:05;;;;;;;12.88;8.95;;;33.90;89.30;;;;;;5052949;28;20021;-65
2022/06/27 08:31:34;;;;;;;11.68;6.03;;;34.00;88.50;;;;;;5054011;28;20426;-66
2022/06/27 08:34:02;;;;;;;8.75;7.00;;;33.90;87.70;;;;;;5053480;28;20091;-64
2022/06/27 08:36:30;;;;;;;13.65;8.30;;;33.90;88.80;;;;;;5053582;28;20107;-65
2022/06/27 08:38:59;;;;;;;16.58;8.27;;;34.00;86.40;;;;;;5053976;28;20087;-66
2022/06/27 08:41:26;;;;;;;11.52;9.65;;;34.00;86.90;;;;;;5053613;28;20052;-65
2022/06/27 08:44:00;;;;;;;11.18;7.15;;;33.90;85.70;;;;;;5048965;28;20116;-65
2022/06/27 08:46:28;;;;;;;10.15;7.60;;;34.00;85.10;;;;;;5053325;28;20043;-64
2022/06/27 08:48:55;;;;;;;10.27;8.10;;;34.00;83.40;;;;;;5053746;28;20092;-65
2022/06/27 08:51:23;;;;;;;11.82;8.77;;;34.00;83.50;;;;;;5053196;28;20429;-65
2022/06/27 08:53:52;;;;;;;16.70;9.60;;;34.20;84.10;;;;;;5052884;28;20021;-66
2022/06/27 08:56:20;;;;;;;20.10;12.82;;;34.10;84.00;;;;;;5053284;28;20108;-65
2022/06/27 08:58:48;;;;;;;9.57;8.18;;;34.00;82.40;;;;;;5053411;28;20024;-66
2022/06/27 09:01:19;;;;;;;23.70;13.85;;;33.90;81.80;;;;;;5042208;28;20391;-65
2022/06/27 09:04:06;;;;;;;20.08;12.70;;;33.90;82.20;;;;;;5041100;28;20032;-65
2022/06/27 09:06:43;;;;;;;19.42;10.48;;;33.90;81.70;;;;;;5051954;28;20056;-65
2022/06/27 09:09:11;;;;;;;19.08;11.20;;;33.80;83.30;;;;;;5033538;28;20052;-66
2022/06/27 09:11:41;;;;;;;33.50;19.77;;;33.80;82.70;;;;;;5044898;28;20020;-65
2022/06/27 09:14:37;;;;;;;27.65;18.10;;;33.70;82.80;;;;;;5045146;28;20478;-65
2022/06/27 09:17:12;;;;;;;46.28;27.23;;;33.60;82.20;;;;;;5053220;28;20421;-66
2022/06/27 09:19:54;;;;;;;36.70;20.08;;;33.60;82.80;;;;;;5033582;28;20490;-67
2022/06/27 09:22:26;;;;;;;29.90;14.90;;;33.50;83.50;;;;;;5033714;28;20049;-65
2022/06/27 09:25:13;;;;;;;;;;;33.40;86.00;;;;;;5033978;28;20445;-66
2022/06/27 09:27:46;;;;;;;40.22;21.30;;;33.30;84.30;;;;;;5045041;28;20367;-66
2022/06/27 09:30:24;;;;;;;28.23;15.75;;;33.20;84.10;;;;;;5045377;28;20442;-65
2022/06/27 09:32:59;;;;;;;21.15;13.23;;;33.20;85.50;;;;;;5038000;28;20515;-66
2022/06/27 09:35:28;;;;;;;19.65;12.85;;;33.10;84.50;;;;;;5053132;28;20079;-67
2022/06/27 09:37:59;;;;;;;19.67;11.30;;;33.10;84.90;;;;;;5053353;28;20108;-65
2022/06/27 09:40:29;;;;;;;15.50;9.77;;;32.90;87.30;;;;;;5052067;28;20465;-65
2022/06/27 09:42:57;;;;;;;29.83;13.23;;;32.70;91.80;;;;;;5051631;28;20033;-65
2022/06/27 09:45:27;;;;;;;26.15;11.57;;;32.40;92.40;;;;;;5049394;28;20047;-66
2022/06/27 09:48:01;;;;;;;20.65;12.35;;;32.00;92.80;;;;;;5033297;28;20026;-65
2022/06/27 09:50:35;;;;;;;25.33;14.52;;;31.70;93.50;;;;;;5033251;28;20105;-65
2022/06/27 09:53:03;;;;;;;23.77;13.48;;;31.60;93.90;;;;;;5039820;28;20052;-65
2022/06/27 09:55:30;;;;;;;37.28;14.65;;;31.50;94.70;;;;;;5052941;28;20108;-65
2022/06/27 09:57:58;;;;;;;36.42;15.15;;;31.50;94.90;;;;;;5053278;28;20029;-65
2022/06/27 10:00:25;;;;;;;33.78;20.27;;;31.40;95.20;;;;;;5034659;28;20405;-66
2022/06/27 10:02:53;;;;;;;85.43;73.78;;;31.30;95.60;;;;;;5035807;28;20489;-65
2022/06/27 10:05:20;;;;;;;44.72;29.23;;;31.30;95.70;;;;;;5056500;28;20028;-65
2022/06/27 10:08:08;;;;;;;44.17;27.48;;;31.10;95.50;;;;;;5059010;28;20467;-65
2022/06/27 10:11:08;;;;;;;32.10;21.90;;;31.00;95.50;;;;;;5056405;28;20055;-65
2022/06/27 10:13:37;;;;;;;46.28;29.33;;;30.80;96.20;;;;;;5056152;28;20170;-65
2022/06/27 10:16:16;;;;;;;41.70;27.50;;;30.80;96.10;;;;;;5056565;28;20182;-65
2022/06/27 10:19:03;;;;;;;45.40;28.05;;;30.80;96.40;;;;;;5056440;28;20104;-65
2022/06/27 10:21:36;;;;;;;55.88;34.17;;;30.70;96.60;;;;;;5056340;28;20478;-65
2022/06/27 10:24:23;;;;;;;30.52;17.90;;;30.80;96.70;;;;;;5056396;28;20039;-65
2022/06/27 10:26:53;;;;;;;35.70;25.25;;;30.80;96.60;;;;;;5056515;28;20032;-65
2022/06/27 10:29:29;;;;;;;94.97;68.72;;;30.70;96.60;;;;;;5056105;28;20028;-64
2022/06/27 10:31:56;;;;;;;95.30;79.10;;;30.70;96.80;;;;;;5056195;28;20056;-66
2022/06/27 10:34:46;;;;;;;105.18;76.45;;;30.70;97.10;;;;;;5056125;28;20127;-65
2022/06/27 10:37:24;;;;;;;96.95;73.15;;;30.70;97.30;;;;;;4994248;28;20066;-65
2022/06/27 10:39:51;;;;;;;99.55;73.15;;;30.70;97.40;;;;;;4994517;28;20423;-65
2022/06/27 10:42:47;;;;;;;44.88;29.73;;;30.80;97.70;;;;;;4994606;28;20022;-65
2022/06/27 10:45:25;;;;;;;42.72;25.55;;;30.70;97.50;;;;;;4994270;28;20057;-64
2022/06/27 10:47:54;;;;;;;47.63;27.00;;;30.70;97.60;;;;;;4994460;28;20050;-65
2022/06/27 10:50:28;;;;;;;44.60;28.35;;;30.70;98.10;;;;;;4993388;28;20062;-65
2022/06/27 10:53:14;;;;;;;29.00;18.10;;;30.70;98.20;;;;;;4992013;28;20101;-65
2022/06/27 10:55:42;;;;;;;49.10;25.42;;;30.70;98.10;;;;;;4992196;28;20041;-64
2022/06/27 10:58:29;;;;;;;36.95;21.63;;;30.70;99.00;;;;;;4992060;28;20058;-65
2022/06/27 11:01:16;;;;;;;29.05;19.27;;;30.70;98.20;;;;;;4916025;29;20076;-64
2022/06/27 11:03:43;;;;;;;56.35;35.47;;;30.60;98.00;;;;;;4916770;29;20428;-64
2022/06/27 11:06:13;;;;;;;81.53;51.70;;;30.50;98.00;;;;;;4916792;29;20028;-64
2022/06/27 11:08:41;;;;;;;68.35;42.15;;;30.50;98.30;;;;;;4917323;29;20052;-65
2022/06/27 11:11:08;;;;;;;69.95;42.72;;;30.40;98.20;;;;;;4917600;29;20039;-65
2022/06/27 11:13:41;;;;;;;64.35;36.90;;;30.40;98.50;;;;;;4917036;29;20036;-64
2022/06/27 11:16:17;;;;;;;50.15;31.15;;;30.40;98.60;;;;;;4916589;29;20095;-64
2022/06/27 11:18:44;;;;;;;46.17;30.15;;;30.40;98.40;;;;;;4917203;29;20060;-65
2022/06/27 11:21:12;;;;;;;58.90;33.78;;;30.30;98.50;;;;;;4917005;29;20079;-65
2022/06/27 11:24:01;;;;;;;34.90;23.63;;;30.20;98.50;;;;;;4917038;29;20036;-65
2022/06/27 11:26:45;;;;;;;36.83;25.13;;;30.10;98.70;;;;;;4916891;29;20095;-65
2022/06/27 11:32:07;;;;;;;31.58;22.35;;;30.00;99.30;;;;;;4972146;28;20554;-65
2022/06/27 11:34:38;;;;;;;40.72;24.27;;;30.00;99.30;;;;;;5050754;28;20470;-65
2022/06/27 11:37:16;;;;;;;38.88;21.13;;;30.00;99.10;;;;;;5055048;28;20029;-65
2022/06/27 11:39:58;;;;;;;28.48;18.02;;;29.90;99.20;;;;;;5054865;28;20045;-65
2022/06/27 11:42:40;;;;;;;34.90;21.45;;;29.80;99.50;;;;;;5054907;28;20021;-65
2022/06/27 11:45:09;;;;;;;34.63;18.65;;;29.80;99.20;;;;;;5054399;28;20108;-65
2022/06/27 11:47:39;;;;;;;25.20;16.02;;;29.80;99.80;;;;;;5054769;28;20025;-65
2022/06/27 11:50:12;;;;;;;26.85;17.30;;;29.80;99.60;;;;;;5054499;28;20497;-65
2022/06/27 11:52:46;;;;;;;27.20;17.35;;;29.80;99.60;;;;;;5054517;28;20025;-65
2022/06/27 11:55:14;;;;;;;27.70;15.82;;;29.80;99.80;;;;;;5054559;28;20489;-64
2022/06/27 11:57:56;;;;;;;22.40;14.23;;;29.90;99.80;;;;;;5054853;28;20029;-65
2022/06/27 12:00:28;;;;;;;29.07;16.73;;;29.90;99.70;;;;;;5054275;28;20035;-65
2022/06/27 12:03:08;;;;;;;39.22;21.40;;;29.80;99.90;;;;;;5054698;28;20260;-65
2022/06/27 12:05:38;;;;;;;26.40;17.17;;;29.80;99.90;;;;;;5054292;28;20032;-65
2022/06/27 12:08:09;;;;;;;48.55;24.25;;;29.90;99.90;;;;;;5054695;28;20104;-65
2022/06/27 12:10:37;;;;;;;38.00;21.95;;;29.90;99.90;;;;;;5054362;28;20033;-64
2022/06/27 12:13:05;;;;;;;35.58;19.77;;;29.90;99.90;;;;;;5054242;28;20021;-62
2022/06/27 12:15:34;;;;;;;40.60;22.65;;;29.90;99.90;;;;;;5054178;28;20025;-62
2022/06/27 12:18:02;;;;;;;38.90;20.70;;;29.90;99.90;;;;;;5054229;28;20498;-64
2022/06/27 12:20:30;;;;;;;37.92;20.75;;;29.90;99.90;;;;;;5054205;28;20035;-63
2022/06/27 12:23:03;;;;;;;35.97;21.50;;;30.00;99.90;;;;;;5053947;28;20041;-65
2022/06/27 12:25:30;;;;;;;37.10;19.85;;;30.00;99.90;;;;;;5054065;28;20052;-64
2022/06/27 12:27:57;;;;;;;45.35;18.70;;;30.00;99.90;;;;;;5052879;28;20466;-64
2022/06/27 12:30:24;;;;;;;34.88;16.45;;;29.90;99.90;;;;;;5053694;28;20029;-63
2022/06/27 12:32:51;;;;;;;27.75;15.77;;;29.90;99.90;;;;;;5053711;28;20036;-65
2022/06/27 12:35:18;;;;;;;21.10;15.05;;;29.70;99.90;;;;;;5053739;28;20029;-65
2022/06/27 12:37:45;;;;;;;28.65;16.23;;;29.60;99.90;;;;;;5053769;28;20033;-65
2022/06/27 12:40:12;;;;;;;22.15;15.38;;;29.60;99.90;;;;;;5056040;28;20060;-65
2022/06/27 12:42:39;;;;;;;31.60;22.45;;;29.60;99.90;;;;;;5054345;28;20040;-63
2022/06/27 12:45:07;;;;;;;49.17;36.95;;;29.60;99.90;;;;;;5053470;28;20323;-69
2022/06/27 12:47:33;;;;;;;31.45;22.13;;;29.50;99.90;;;;;;5053487;28;20100;-65
2022/06/27 12:50:00;;;;;;;30.13;19.65;;;29.50;99.90;;;;;;5052748;28;20025;-64